Time;durP1;ratioP1;P1;durP2;ratioP2;P2;SDS_P1;SDS_P2;PMS_P1;PMS_P2;Temp;Humidity;BMP_temperature;BMP_pressure;BME280_temperature;BME280_humidity;BME280_pressure;Samples;Min_cycle;Max_cycle;Signal;HPM_P1;HPM_P2
2022/08/27 00:01:47;;;;;;;11.85;6.95;;;19.60;99.90;;;;;;5024632;28;20295;-70
2022/08/27 00:04:16;;;;;;;11.90;6.28;;;19.60;99.90;;;;;;5014190;28;20208;-71
2022/08/27 00:06:46;;;;;;;13.38;6.53;;;19.60;99.90;;;;;;5021711;28;20197;-70
2022/08/27 00:09:13;;;;;;;13.77;7.22;;;19.60;99.90;;;;;;5029882;28;20294;-70
2022/08/27 00:11:40;;;;;;;11.75;6.75;;;19.60;99.90;;;;;;5030964;28;20286;-70
2022/08/27 00:14:08;;;;;;;17.05;6.78;;;19.60;99.90;;;;;;5017619;28;20208;-70
2022/08/27 00:16:34;;;;;;;10.45;6.28;;;19.60;99.90;;;;;;5026160;28;20200;-69
2022/08/27 00:19:02;;;;;;;12.57;6.97;;;19.50;99.90;;;;;;5028815;28;20287;-70
2022/08/27 00:21:31;;;;;;;11.15;6.43;;;19.60;99.90;;;;;;5017755;28;20200;-69
2022/08/27 00:23:59;;;;;;;11.30;6.25;;;19.60;99.90;;;;;;5031577;28;20694;-71
2022/08/27 00:26:26;;;;;;;12.43;6.43;;;19.60;99.90;;;;;;5029650;28;20310;-70
2022/08/27 00:28:53;;;;;;;14.23;6.50;;;19.60;99.90;;;;;;5022091;28;20227;-70
2022/08/27 00:31:20;;;;;;;12.50;6.20;;;19.60;99.90;;;;;;5030937;28;20210;-70
2022/08/27 00:33:47;;;;;;;16.92;6.88;;;19.60;99.90;;;;;;5020113;28;20266;-71
2022/08/27 00:36:15;;;;;;;12.35;6.40;;;19.50;99.90;;;;;;5021736;28;20261;-69
2022/08/27 00:38:43;;;;;;;16.10;6.85;;;19.50;99.90;;;;;;5015935;28;20634;-70
2022/08/27 00:41:12;;;;;;;11.45;5.93;;;19.60;99.90;;;;;;5026523;28;20292;-70
2022/08/27 00:43:50;;;;;;;14.68;6.85;;;19.50;99.90;;;;;;5025223;28;20370;-70
2022/08/27 00:46:23;;;;;;;16.42;7.05;;;19.50;99.90;;;;;;5025483;28;20227;-69
2022/08/27 00:48:54;;;;;;;10.05;6.10;;;19.50;99.90;;;;;;5003437;28;20666;-70
2022/08/27 00:51:21;;;;;;;14.15;5.88;;;19.50;99.90;;;;;;5019839;28;20303;-70
2022/08/27 00:53:51;;;;;;;15.95;6.72;;;19.50;99.90;;;;;;5029685;28;20274;-69
2022/08/27 00:56:22;;;;;;;15.38;6.85;;;19.60;99.90;;;;;;5030941;28;20250;-66
2022/08/27 00:58:51;;;;;;;14.90;6.38;;;19.50;99.90;;;;;;5021481;28;20245;-66
2022/08/27 01:01:21;;;;;;;16.15;5.75;;;19.50;99.90;;;;;;5031632;28;20315;-67
2022/08/27 01:03:51;;;;;;;13.70;5.85;;;19.50;99.90;;;;;;5018002;28;20290;-66
2022/08/27 01:06:20;;;;;;;9.95;6.45;;;19.50;99.90;;;;;;5018064;28;20273;-66
2022/08/27 01:08:57;;;;;;;14.05;5.85;;;19.50;99.90;;;;;;4962035;28;1143044;-66
2022/08/27 01:11:25;;;;;;;14.05;6.50;;;19.50;99.90;;;;;;5018599;28;20270;-66
2022/08/27 01:13:53;;;;;;;10.07;6.05;;;19.50;99.90;;;;;;5018854;28;20204;-66
2022/08/27 01:16:27;;;;;;;16.83;6.00;;;19.50;99.90;;;;;;5027293;28;20203;-67
2022/08/27 01:18:56;;;;;;;14.15;6.25;;;19.50;99.90;;;;;;5017861;28;20200;-66
2022/08/27 01:21:30;;;;;;;12.63;5.95;;;19.50;99.90;;;;;;5029119;28;20204;-67
2022/08/27 01:24:06;;;;;;;15.60;7.85;;;19.50;99.90;;;;;;5025631;28;20234;-66
2022/08/27 01:26:35;;;;;;;15.07;6.63;;;19.50;99.90;;;;;;5020168;28;20308;-66
2022/08/27 01:29:03;;;;;;;14.57;6.55;;;19.50;99.90;;;;;;5017602;28;20207;-67
2022/08/27 01:31:30;;;;;;;15.48;7.05;;;19.40;99.90;;;;;;5031779;28;20203;-66
2022/08/27 01:34:00;;;;;;;15.57;7.53;;;19.50;99.90;;;;;;5027552;28;20208;-66
2022/08/27 01:36:28;;;;;;;15.30;6.95;;;19.50;99.90;;;;;;5023262;28;20212;-67
2022/08/27 01:38:55;;;;;;;15.38;6.57;;;19.50;99.90;;;;;;5014470;28;20566;-66
2022/08/27 01:41:23;;;;;;;14.48;6.28;;;19.50;99.90;;;;;;5028872;28;20247;-66
2022/08/27 01:43:51;;;;;;;15.20;5.88;;;19.50;99.90;;;;;;5018309;28;20239;-67
2022/08/27 01:46:21;;;;;;;10.82;5.45;;;19.40;99.90;;;;;;5019094;28;20307;-66
2022/08/27 01:48:48;;;;;;;13.00;5.75;;;19.40;99.90;;;;;;5021138;28;20236;-66
2022/08/27 01:51:15;;;;;;;15.23;5.97;;;19.50;99.90;;;;;;5024955;28;20258;-66
2022/08/27 01:53:43;;;;;;;10.85;5.35;;;19.50;99.90;;;;;;5025401;28;20199;-66
2022/08/27 01:56:10;;;;;;;15.13;6.15;;;19.50;99.90;;;;;;5024205;28;20690;-67
2022/08/27 01:58:38;;;;;;;10.27;5.72;;;19.50;99.90;;;;;;5025064;28;20659;-66
2022/08/27 02:01:09;;;;;;;11.55;5.60;;;19.40;99.90;;;;;;5024417;28;20200;-66
2022/08/27 02:03:37;;;;;;;9.88;5.22;;;19.30;99.90;;;;;;5024626;28;20206;-66
2022/08/27 02:06:07;;;;;;;16.98;5.95;;;19.30;99.90;;;;;;5025312;28;20690;-67
2022/08/27 02:08:34;;;;;;;16.58;6.25;;;19.30;99.90;;;;;;5015913;28;20207;-66
2022/08/27 02:11:02;;;;;;;9.80;5.63;;;19.30;99.90;;;;;;5029523;28;20257;-66
2022/08/27 02:13:29;;;;;;;12.38;6.03;;;19.30;99.90;;;;;;5017768;28;20265;-67
2022/08/27 02:15:56;;;;;;;13.27;6.40;;;19.30;99.90;;;;;;5023634;28;20691;-66
2022/08/27 02:18:24;;;;;;;12.85;6.60;;;19.30;99.90;;;;;;5018689;28;20662;-66
2022/08/27 02:20:51;;;;;;;16.55;7.32;;;19.30;99.90;;;;;;5013956;28;20770;-66
2022/08/27 02:23:19;;;;;;;13.60;6.63;;;19.30;99.90;;;;;;5017420;28;20650;-66
2022/08/27 02:25:46;;;;;;;13.60;7.40;;;19.30;99.90;;;;;;5023641;28;20223;-66
2022/08/27 02:28:13;;;;;;;14.27;7.88;;;19.30;99.90;;;;;;5014531;28;20200;-66
2022/08/27 02:30:40;;;;;;;13.38;7.82;;;19.30;99.90;;;;;;5014376;28;20200;-66
2022/08/27 02:33:08;;;;;;;14.50;8.60;;;19.30;99.90;;;;;;5028391;28;20720;-66
2022/08/27 02:35:39;;;;;;;14.73;8.88;;;19.30;99.90;;;;;;5026086;28;20199;-66
2022/08/27 02:38:06;;;;;;;16.80;7.65;;;19.30;99.90;;;;;;5022589;28;20214;-66
2022/08/27 02:40:33;;;;;;;18.30;9.20;;;19.30;99.90;;;;;;5020011;28;20204;-66
2022/08/27 02:43:00;;;;;;;18.05;9.95;;;19.30;99.90;;;;;;5018342;28;20258;-66
2022/08/27 02:45:27;;;;;;;14.98;10.32;;;19.20;99.90;;;;;;5021125;28;20294;-66
2022/08/27 02:47:54;;;;;;;20.02;12.13;;;19.20;99.90;;;;;;5015834;28;20204;-66
2022/08/27 02:50:22;;;;;;;20.45;12.73;;;19.20;99.90;;;;;;5017690;28;20211;-66
2022/08/27 02:52:50;;;;;;;18.50;12.55;;;19.10;99.90;;;;;;5012256;28;20282;-66
2022/08/27 02:55:17;;;;;;;17.20;11.23;;;19.10;99.90;;;;;;5016007;28;20208;-66
2022/08/27 02:57:44;;;;;;;17.70;11.65;;;19.10;99.90;;;;;;5019764;28;20240;-66
2022/08/27 03:00:15;;;;;;;18.83;10.95;;;19.00;99.90;;;;;;5025858;28;20631;-66
2022/08/27 03:02:42;;;;;;;17.50;9.63;;;19.00;99.90;;;;;;5029101;28;20678;-66
2022/08/27 03:05:12;;;;;;;17.55;9.90;;;19.00;99.90;;;;;;5027702;28;20239;-66
2022/08/27 03:07:39;;;;;;;15.68;9.07;;;19.00;99.90;;;;;;5021798;28;20237;-66
2022/08/27 03:10:09;;;;;;;15.43;7.75;;;19.00;99.90;;;;;;5021214;28;20235;-66
2022/08/27 03:12:36;;;;;;;15.13;8.30;;;19.00;99.90;;;;;;5020583;28;20257;-66
2022/08/27 03:15:04;;;;;;;16.08;7.97;;;19.00;99.90;;;;;;5028952;28;20203;-67
2022/08/27 03:20:17;;;;;;;16.60;9.18;;;19.00;99.90;;;;;;5014759;28;20258;-66
2022/08/27 03:22:44;;;;;;;13.73;7.43;;;19.00;99.90;;;;;;5010799;28;20214;-66
2022/08/27 03:25:13;;;;;;;16.65;8.48;;;19.00;99.90;;;;;;5028872;28;20278;-66
2022/08/27 03:27:40;;;;;;;12.93;8.02;;;19.00;99.90;;;;;;5024262;28;20235;-66
2022/08/27 03:30:10;;;;;;;14.25;7.85;;;18.90;99.90;;;;;;5025855;28;20203;-66
2022/08/27 03:32:38;;;;;;;16.25;7.88;;;19.00;99.90;;;;;;5022151;28;20212;-66
2022/08/27 03:35:06;;;;;;;12.15;7.68;;;19.00;99.90;;;;;;5025760;28;20207;-66
2022/08/27 03:37:33;;;;;;;14.73;7.57;;;19.00;99.90;;;;;;5025573;28;20216;-66
2022/08/27 03:40:00;;;;;;;13.75;9.10;;;19.00;99.90;;;;;;5016138;28;20287;-66
2022/08/27 03:42:28;;;;;;;18.45;9.98;;;19.00;99.90;;;;;;5024280;28;20207;-66
2022/08/27 03:44:55;;;;;;;14.95;8.35;;;18.90;99.90;;;;;;5018905;28;20224;-66
2022/08/27 03:47:22;;;;;;;14.02;8.75;;;18.90;99.90;;;;;;5017358;28;20281;-66
2022/08/27 03:49:49;;;;;;;17.90;8.88;;;18.90;99.90;;;;;;5016874;28;20215;-66
2022/08/27 03:52:16;;;;;;;18.80;9.13;;;18.80;99.90;;;;;;5028004;28;20218;-66
2022/08/27 03:54:44;;;;;;;15.82;9.15;;;18.80;99.90;;;;;;5024873;28;20254;-66
2022/08/27 03:57:11;;;;;;;18.80;9.55;;;18.80;99.90;;;;;;5023532;28;20207;-66
2022/08/27 03:59:42;;;;;;;17.42;9.38;;;18.70;99.90;;;;;;5020219;28;20208;-66
2022/08/27 04:02:09;;;;;;;18.60;8.80;;;18.80;99.90;;;;;;5023446;28;20544;-66
2022/08/27 04:04:36;;;;;;;14.55;8.93;;;18.90;99.90;;;;;;5028136;28;20277;-68
2022/08/27 04:07:03;;;;;;;13.77;8.77;;;18.80;99.90;;;;;;5025509;28;20697;-68
2022/08/27 04:09:30;;;;;;;17.73;9.73;;;18.80;99.90;;;;;;5023887;28;20214;-68
2022/08/27 04:11:57;;;;;;;18.20;8.82;;;18.80;99.90;;;;;;5018372;28;20755;-68
2022/08/27 04:14:24;;;;;;;13.93;8.15;;;18.80;99.90;;;;;;5023812;28;20205;-69
2022/08/27 04:16:53;;;;;;;15.18;8.10;;;18.80;99.90;;;;;;5010153;28;20241;-68
2022/08/27 04:19:21;;;;;;;16.50;8.95;;;18.70;99.90;;;;;;5022650;28;20207;-68
2022/08/27 04:21:49;;;;;;;14.00;7.78;;;18.80;99.90;;;;;;5009590;28;20208;-68
2022/08/27 04:24:16;;;;;;;15.15;8.60;;;18.70;99.90;;;;;;5024182;28;20211;-69
2022/08/27 04:26:46;;;;;;;14.73;7.32;;;18.80;99.90;;;;;;5021013;28;20257;-68
2022/08/27 04:29:13;;;;;;;16.70;7.07;;;18.70;99.90;;;;;;5019112;28;20235;-68
2022/08/27 04:31:40;;;;;;;15.85;7.95;;;18.70;99.90;;;;;;5020211;28;20719;-67
2022/08/27 04:34:08;;;;;;;17.50;7.55;;;18.70;99.90;;;;;;5013774;28;20287;-67
2022/08/27 04:36:35;;;;;;;14.10;7.50;;;18.70;99.90;;;;;;5024228;28;20211;-67
2022/08/27 04:39:02;;;;;;;11.35;6.85;;;18.70;99.90;;;;;;5016305;28;20208;-67
2022/08/27 04:41:32;;;;;;;13.85;6.25;;;18.80;99.90;;;;;;5021536;28;20208;-66
2022/08/27 04:44:03;;;;;;;15.57;6.13;;;18.70;99.90;;;;;;5026954;28;20681;-66
2022/08/27 04:46:35;;;;;;;11.68;5.47;;;18.60;99.90;;;;;;5014011;28;20266;-66
2022/08/27 04:49:04;;;;;;;15.25;5.68;;;18.60;99.90;;;;;;5022934;28;20262;-66
2022/08/27 04:51:33;;;;;;;11.15;5.18;;;18.70;99.90;;;;;;5017442;28;20239;-67
2022/08/27 04:54:02;;;;;;;12.10;5.22;;;18.70;99.90;;;;;;5020088;28;20195;-67
2022/08/27 04:56:30;;;;;;;13.82;4.60;;;18.70;99.90;;;;;;5028703;28;20685;-67
2022/08/27 04:58:57;;;;;;;11.30;4.97;;;18.60;99.90;;;;;;5025828;28;20682;-67
2022/08/27 05:01:27;;;;;;;12.93;4.63;;;18.50;99.90;;;;;;5031317;28;20646;-67
2022/08/27 05:03:54;;;;;;;11.43;5.38;;;18.60;99.90;;;;;;5033061;28;20290;-67
2022/08/27 05:06:22;;;;;;;13.98;5.43;;;18.50;99.90;;;;;;5029862;28;20228;-67
2022/08/27 05:08:52;;;;;;;14.63;5.00;;;18.50;99.90;;;;;;5024868;28;20220;-67
2022/08/27 05:11:20;;;;;;;11.05;4.80;;;18.50;99.90;;;;;;5020309;28;20295;-66
2022/08/27 05:13:47;;;;;;;11.55;4.25;;;18.50;99.90;;;;;;5025818;28;20212;-66
2022/08/27 05:16:18;;;;;;;9.18;3.80;;;18.60;99.90;;;;;;5020652;28;20227;-69
2022/08/27 05:18:46;;;;;;;15.27;5.13;;;18.50;99.90;;;;;;5021895;28;20204;-66
2022/08/27 05:21:18;;;;;;;13.32;5.15;;;18.60;99.90;;;;;;5030038;28;20314;-65
2022/08/27 05:23:45;;;;;;;12.43;4.30;;;18.50;99.90;;;;;;5020894;28;20201;-66
2022/08/27 05:26:14;;;;;;;9.07;4.30;;;18.50;99.90;;;;;;5016496;28;20742;-67
2022/08/27 05:28:41;;;;;;;15.75;4.38;;;18.60;99.90;;;;;;5025424;28;20207;-66
2022/08/27 05:31:10;;;;;;;11.45;4.35;;;18.50;99.90;;;;;;5020557;28;20274;-68
2022/08/27 05:33:38;;;;;;;10.57;3.92;;;18.50;99.90;;;;;;5028001;28;20204;-68
2022/08/27 05:36:06;;;;;;;7.95;4.35;;;18.60;99.90;;;;;;5031353;28;20204;-68
2022/08/27 05:38:35;;;;;;;12.95;4.78;;;18.60;99.90;;;;;;5025242;28;20615;-68
2022/08/27 05:41:04;;;;;;;13.13;4.63;;;18.60;99.90;;;;;;5023779;28;20306;-68
2022/08/27 05:43:32;;;;;;;13.68;5.40;;;18.50;99.90;;;;;;5019410;28;20578;-68
2022/08/27 05:46:02;;;;;;;11.23;4.63;;;18.60;99.90;;;;;;5023925;28;20243;-68
2022/08/27 05:48:30;;;;;;;10.73;5.10;;;18.50;99.90;;;;;;5030184;28;20204;-68
2022/08/27 05:50:56;;;;;;;16.08;5.50;;;18.50;99.90;;;;;;5016328;28;20228;-68
2022/08/27 05:53:23;;;;;;;11.75;4.93;;;18.60;99.90;;;;;;5024076;28;20240;-68
2022/08/27 05:55:51;;;;;;;15.20;5.82;;;18.60;99.90;;;;;;5022658;28;20333;-68
2022/08/27 06:01:06;;;;;;;13.77;5.70;;;18.60;99.90;;;;;;5015966;28;20954;-66
2022/08/27 06:03:34;;;;;;;12.20;5.30;;;18.70;99.90;;;;;;5019391;28;20741;-66
2022/08/27 06:06:01;;;;;;;12.38;5.10;;;18.70;99.90;;;;;;5025700;28;20227;-66
2022/08/27 06:08:28;;;;;;;10.95;5.35;;;18.70;99.90;;;;;;5027513;28;20263;-66
2022/08/27 06:10:56;;;;;;;14.38;5.90;;;18.70;99.90;;;;;;5019964;28;20250;-66
2022/08/27 06:13:23;;;;;;;12.23;5.55;;;18.70;99.90;;;;;;5025974;28;20600;-66
2022/08/27 06:15:50;;;;;;;13.65;5.40;;;18.70;99.90;;;;;;5017959;28;20203;-66
2022/08/27 06:18:19;;;;;;;14.45;5.65;;;18.70;99.90;;;;;;5010522;28;20713;-66
2022/08/27 06:20:46;;;;;;;13.65;6.10;;;18.60;99.90;;;;;;5012582;28;20731;-66
2022/08/27 06:23:13;;;;;;;10.77;5.40;;;18.60;99.90;;;;;;5011742;28;20732;-66
2022/08/27 06:25:41;;;;;;;12.40;5.10;;;18.60;99.90;;;;;;5010846;28;21110;-66
2022/08/27 06:28:08;;;;;;;15.38;5.00;;;18.60;99.90;;;;;;5013954;28;20614;-66
2022/08/27 06:30:36;;;;;;;12.50;5.50;;;18.60;99.90;;;;;;5011894;28;20204;-66
2022/08/27 06:33:03;;;;;;;11.25;5.20;;;18.70;99.90;;;;;;5013875;28;20235;-66
2022/08/27 06:35:34;;;;;;;13.43;6.57;;;18.80;99.90;;;;;;5026545;28;20614;-66
2022/08/27 06:38:01;;;;;;;17.77;6.25;;;18.80;99.90;;;;;;5024296;28;20240;-67
2022/08/27 06:40:28;;;;;;;13.88;5.68;;;18.80;99.90;;;;;;5013349;28;20263;-66
2022/08/27 06:42:55;;;;;;;15.32;5.22;;;18.90;99.90;;;;;;5014282;28;20207;-67
2022/08/27 06:45:22;;;;;;;11.40;5.50;;;18.80;99.90;;;;;;5017377;28;20211;-67
2022/08/27 06:47:49;;;;;;;10.95;5.22;;;18.80;99.90;;;;;;5017175;28;20223;-66
2022/08/27 06:50:16;;;;;;;15.18;7.78;;;18.90;99.90;;;;;;5021153;28;20227;-67
2022/08/27 06:52:45;;;;;;;16.88;5.82;;;18.90;99.90;;;;;;5014376;28;20204;-66
2022/08/27 06:55:12;;;;;;;14.27;5.80;;;19.00;99.90;;;;;;5015881;28;20207;-67
2022/08/27 06:57:39;;;;;;;10.88;4.63;;;19.00;99.90;;;;;;5019960;28;20307;-69
2022/08/27 07:00:08;;;;;;;9.20;4.00;;;19.00;99.90;;;;;;5015957;28;20295;-69
2022/08/27 07:02:35;;;;;;;6.60;4.80;;;19.00;99.90;;;;;;5018011;28;20336;-67
2022/08/27 07:05:02;;;;;;;9.40;3.90;;;18.90;99.90;;;;;;5024938;28;20685;-67
2022/08/27 07:07:29;;;;;;;12.57;3.88;;;19.10;99.90;;;;;;5027902;28;20318;-67
2022/08/27 07:09:59;;;;;;;11.35;4.30;;;19.10;99.90;;;;;;5025406;28;20242;-67
2022/08/27 07:12:26;;;;;;;8.52;4.00;;;18.90;99.90;;;;;;5022004;28;20285;-67
2022/08/27 07:14:53;;;;;;;9.45;3.95;;;19.00;99.90;;;;;;5026461;28;20674;-68
2022/08/27 07:17:20;;;;;;;10.98;4.32;;;19.10;99.90;;;;;;5017932;28;20219;-68
2022/08/27 07:19:46;;;;;;;10.13;4.00;;;19.00;99.90;;;;;;5021447;28;20199;-68
2022/08/27 07:22:14;;;;;;;14.18;4.35;;;19.10;99.90;;;;;;5021862;28;20474;-68
2022/08/27 07:24:40;;;;;;;9.25;4.00;;;19.00;99.90;;;;;;5018837;28;20265;-68
2022/08/27 07:27:09;;;;;;;7.82;3.97;;;19.10;99.90;;;;;;5014959;28;20314;-68
2022/08/27 07:29:38;;;;;;;8.40;3.08;;;19.00;99.90;;;;;;5022929;28;20253;-68
2022/08/27 07:32:05;;;;;;;9.15;4.00;;;19.00;99.90;;;;;;5018872;28;20667;-68
2022/08/27 07:34:32;;;;;;;10.45;3.88;;;19.00;99.90;;;;;;5017341;28;20203;-68
2022/08/27 07:36:59;;;;;;;6.93;3.13;;;19.20;99.90;;;;;;5020398;28;20207;-67
2022/08/27 07:39:26;;;;;;;11.32;4.40;;;19.10;99.90;;;;;;5026833;28;20435;-67
2022/08/27 07:44:42;;;;;;;9.23;3.38;;;19.20;99.90;;;;;;5013167;28;20329;-67
2022/08/27 07:47:10;;;;;;;7.63;3.25;;;19.20;99.90;;;;;;5025428;28;20803;-66
2022/08/27 07:49:37;;;;;;;8.57;3.35;;;19.20;99.90;;;;;;5020443;28;20249;-67
2022/08/27 07:52:05;;;;;;;6.68;3.70;;;19.20;99.90;;;;;;5019442;28;20204;-67
2022/08/27 07:54:33;;;;;;;9.45;3.47;;;19.20;99.90;;;;;;5028109;28;20212;-68
2022/08/27 07:57:00;;;;;;;6.40;2.97;;;19.30;99.90;;;;;;5020332;28;20310;-68
2022/08/27 07:59:27;;;;;;;11.43;3.75;;;19.30;99.90;;;;;;5024180;28;20239;-67
2022/08/27 08:01:56;;;;;;;11.55;3.40;;;19.40;99.90;;;;;;5022677;28;20223;-67
2022/08/27 08:04:23;;;;;;;12.32;3.80;;;19.40;99.90;;;;;;5021982;28;20204;-67
2022/08/27 08:06:51;;;;;;;9.63;4.15;;;19.50;99.90;;;;;;5026667;28;20218;-67
2022/08/27 08:09:18;;;;;;;9.80;4.13;;;19.60;99.90;;;;;;5028443;28;20262;-67
2022/08/27 08:11:45;;;;;;;10.63;4.10;;;19.60;99.90;;;;;;5028584;28;20258;-67
2022/08/27 08:14:12;;;;;;;8.63;3.80;;;19.60;99.90;;;;;;5020959;28;20254;-67
2022/08/27 08:16:39;;;;;;;11.43;4.88;;;19.60;99.90;;;;;;5024172;28;20285;-67
2022/08/27 08:19:08;;;;;;;9.60;4.07;;;19.70;99.90;;;;;;5025779;28;20344;-67
2022/08/27 08:21:36;;;;;;;11.02;4.20;;;19.70;99.90;;;;;;5021564;28;20196;-67
2022/08/27 08:24:04;;;;;;;9.73;3.90;;;19.70;99.90;;;;;;5021354;28;20212;-68
2022/08/27 08:26:31;;;;;;;9.18;3.60;;;19.80;99.90;;;;;;5026616;28;20266;-67
2022/08/27 08:28:59;;;;;;;8.15;3.58;;;19.90;99.90;;;;;;5024483;28;20215;-67
2022/08/27 08:31:27;;;;;;;12.23;3.85;;;20.00;99.90;;;;;;5028759;28;20294;-67
2022/08/27 08:33:54;;;;;;;13.70;3.92;;;19.90;99.90;;;;;;5031863;28;20206;-67
2022/08/27 08:36:22;;;;;;;9.40;4.10;;;19.90;99.90;;;;;;5026354;28;20238;-68
2022/08/27 08:38:49;;;;;;;8.10;3.60;;;19.90;99.90;;;;;;5031223;28;20266;-67
2022/08/27 08:41:39;;;;;;;10.73;4.32;;;19.70;99.90;;;;;;5029292;28;20204;-67
2022/08/27 08:44:16;;;;;;;12.88;4.00;;;19.70;99.90;;;;;;5026593;28;20231;-68
2022/08/27 08:46:49;;;;;;;5.80;3.33;;;19.70;99.90;;;;;;5024703;28;20916;-68
2022/08/27 08:49:28;;;;;;;6.80;3.00;;;19.60;99.90;;;;;;5028688;28;20259;-67
2022/08/27 08:52:02;;;;;;;7.38;3.65;;;19.70;99.90;;;;;;5028028;28;20203;-68
2022/08/27 08:54:33;;;;;;;7.53;3.40;;;19.70;99.90;;;;;;5027478;28;20215;-68
2022/08/27 08:57:06;;;;;;;6.13;3.58;;;19.70;99.90;;;;;;5026077;28;20203;-68
2022/08/27 08:59:36;;;;;;;12.10;4.20;;;19.70;99.90;;;;;;5025123;28;20251;-67
2022/08/27 09:02:06;;;;;;;6.57;4.10;;;19.60;99.90;;;;;;5029320;28;20215;-67
2022/08/27 09:04:33;;;;;;;10.68;4.53;;;19.50;99.90;;;;;;5028015;28;20305;-67
2022/08/27 09:07:07;;;;;;;7.47;3.95;;;19.50;99.90;;;;;;5026183;28;20650;-67
2022/08/27 09:09:44;;;;;;;10.80;4.35;;;19.50;99.90;;;;;;5028553;28;20285;-67
2022/08/27 09:12:17;;;;;;;11.45;4.35;;;19.60;99.90;;;;;;5031282;28;20246;-67
2022/08/27 09:14:53;;;;;;;10.05;4.28;;;19.60;99.90;;;;;;5027118;28;20207;-67
2022/08/27 09:17:20;;;;;;;8.20;4.10;;;19.70;99.90;;;;;;5016328;28;20260;-67
2022/08/27 09:19:47;;;;;;;10.70;4.30;;;19.70;99.90;;;;;;5025486;28;20631;-67
2022/08/27 09:22:23;;;;;;;8.38;4.05;;;19.70;99.90;;;;;;5022660;28;20271;-67
2022/08/27 09:25:01;;;;;;;8.35;4.07;;;19.70;99.90;;;;;;5010688;28;20214;-67
2022/08/27 09:27:29;;;;;;;8.70;4.38;;;19.70;99.90;;;;;;4998011;28;20689;-67
2022/08/27 09:29:57;;;;;;;12.38;4.10;;;19.60;99.90;;;;;;5021071;28;20211;-67
2022/08/27 09:32:25;;;;;;;8.15;4.00;;;19.50;99.90;;;;;;5016266;28;20258;-67
2022/08/27 09:34:57;;;;;;;8.52;3.85;;;19.50;99.90;;;;;;5005173;28;20204;-67
2022/08/27 09:37:29;;;;;;;11.68;3.90;;;19.60;99.90;;;;;;5015380;28;20705;-67
2022/08/27 09:40:03;;;;;;;10.10;3.90;;;19.50;99.90;;;;;;5014167;28;20250;-67
2022/08/27 09:42:37;;;;;;;7.38;3.70;;;19.40;99.90;;;;;;5017745;28;20606;-67
2022/08/27 09:45:09;;;;;;;9.10;3.80;;;19.40;99.90;;;;;;5004358;28;20812;-67
2022/08/27 09:47:43;;;;;;;12.65;4.25;;;19.50;99.90;;;;;;5013576;28;20234;-68
2022/08/27 09:50:11;;;;;;;9.85;3.72;;;19.50;99.90;;;;;;5006312;28;20756;-67
2022/08/27 09:52:50;;;;;;;8.52;3.72;;;19.50;99.90;;;;;;5013662;28;20739;-67
2022/08/27 09:55:28;;;;;;;6.50;3.47;;;19.50;99.90;;;;;;5012758;28;20208;-67
2022/08/27 09:57:55;;;;;;;8.40;4.05;;;19.50;99.90;;;;;;5020379;28;20204;-67
2022/08/27 10:00:34;;;;;;;9.98;4.32;;;19.60;99.90;;;;;;5022484;28;20231;-67
2022/08/27 10:03:02;;;;;;;10.63;3.83;;;19.60;99.90;;;;;;5019484;28;20665;-67
2022/08/27 10:05:31;;;;;;;11.35;4.15;;;19.70;99.90;;;;;;5008360;28;20211;-67
2022/08/27 10:08:02;;;;;;;9.48;4.20;;;19.80;99.90;;;;;;5012966;28;20624;-66
2022/08/27 10:10:40;;;;;;;8.95;3.95;;;19.90;99.90;;;;;;5018140;28;20246;-66
2022/08/27 10:13:14;;;;;;;18.27;5.18;;;20.00;99.90;;;;;;5029921;28;20677;-66
2022/08/27 10:15:49;;;;;;;9.15;3.72;;;20.10;99.90;;;;;;5001541;28;20214;-66
2022/08/27 10:18:24;;;;;;;9.70;3.97;;;20.20;99.90;;;;;;4993858;28;20203;-66
2022/08/27 10:21:03;;;;;;;10.02;3.78;;;20.00;99.90;;;;;;5011570;28;20246;-66
2022/08/27 10:23:42;;;;;;;9.93;4.10;;;20.30;99.90;;;;;;5009380;28;20325;-66
2022/08/27 10:26:15;;;;;;;8.77;4.10;;;20.20;99.90;;;;;;5015081;28;20200;-66
2022/08/27 10:29:01;;;;;;;5.25;3.80;;;20.20;99.90;;;;;;5010204;28;20806;-66
2022/08/27 10:31:38;;;;;;;8.82;4.35;;;20.30;99.90;;;;;;5014205;28;20208;-66
2022/08/27 10:34:23;;;;;;;11.98;4.35;;;20.40;99.90;;;;;;5019294;28;20218;-66
2022/08/27 10:37:00;;;;;;;10.00;4.28;;;20.50;99.90;;;;;;4994529;28;20286;-67
2022/08/27 10:39:47;;;;;;;8.50;3.88;;;20.90;99.90;;;;;;5009150;28;20677;-66
2022/08/27 10:42:20;;;;;;;9.32;4.15;;;21.00;99.90;;;;;;5013055;28;20706;-66
2022/08/27 10:45:04;;;;;;;7.88;3.97;;;21.10;99.90;;;;;;5029412;28;20234;-66
2022/08/27 10:48:03;;;;;;;9.20;3.90;;;21.20;99.90;;;;;;5006417;28;20205;-66
2022/08/27 10:50:37;;;;;;;9.20;4.13;;;21.30;99.90;;;;;;5011921;28;20273;-66
2022/08/27 10:53:08;;;;;;;8.20;3.85;;;21.20;99.90;;;;;;4990854;28;20359;-67
2022/08/27 10:55:41;;;;;;;10.13;4.07;;;21.10;99.90;;;;;;5009260;28;20736;-67
2022/08/27 10:58:39;;;;;;;9.98;3.83;;;21.20;99.90;;;;;;5009101;28;20333;-67
2022/08/27 11:01:16;;;;;;;6.45;4.00;;;21.40;99.90;;;;;;4988765;28;20208;-66
2022/08/27 11:03:49;;;;;;;8.68;4.18;;;21.50;99.90;;;;;;4990698;28;20274;-67
2022/08/27 11:06:22;;;;;;;12.20;4.25;;;21.70;99.90;;;;;;5007449;28;20281;-67
2022/08/27 11:08:55;;;;;;;13.35;5.88;;;21.70;99.90;;;;;;5005126;28;21076;-67
2022/08/27 11:11:33;;;;;;;12.57;3.97;;;21.60;99.90;;;;;;5013649;28;20293;-67
2022/08/27 11:14:02;;;;;;;12.93;4.15;;;21.50;99.90;;;;;;5007193;28;20204;-67
2022/08/27 11:16:35;;;;;;;8.35;3.88;;;21.30;99.90;;;;;;5015651;28;20284;-68
2022/08/27 11:19:12;;;;;;;7.57;3.97;;;21.30;99.90;;;;;;5007179;28;20216;-68
2022/08/27 11:21:45;;;;;;;8.43;4.13;;;21.30;99.90;;;;;;4990733;28;20218;-68
2022/08/27 11:24:23;;;;;;;6.10;3.10;;;21.40;99.90;;;;;;5012258;28;20773;-68
2022/08/27 11:26:55;;;;;;;10.63;3.67;;;21.20;99.90;;;;;;5008107;28;20291;-68
2022/08/27 11:29:28;;;;;;;9.63;3.50;;;21.40;99.90;;;;;;5008021;28;20243;-68
2022/08/27 11:32:03;;;;;;;7.10;3.10;;;21.60;99.90;;;;;;5009593;28;20893;-68
2022/08/27 11:34:38;;;;;;;8.20;3.00;;;21.70;99.90;;;;;;5012228;28;20208;-68
2022/08/27 11:37:20;;;;;;;7.00;3.17;;;21.70;99.90;;;;;;4991266;28;20211;-67
2022/08/27 11:40:06;;;;;;;8.70;3.13;;;21.70;99.90;;;;;;5007623;28;20278;-68
2022/08/27 11:42:40;;;;;;;6.93;2.60;;;21.70;99.90;;;;;;5003527;28;20219;-68
2022/08/27 11:45:15;;;;;;;4.18;3.15;;;21.70;99.90;;;;;;5005822;28;20211;-68
2022/08/27 11:47:51;;;;;;;5.53;2.63;;;21.60;99.90;;;;;;5007116;28;20238;-68
2022/08/27 11:50:20;;;;;;;3.45;2.60;;;21.60;99.90;;;;;;5007294;28;20278;-68
2022/08/27 11:52:57;;;;;;;6.18;2.40;;;21.60;99.90;;;;;;5006767;28;20195;-67
2022/08/27 11:55:28;;;;;;;7.90;3.35;;;21.50;99.90;;;;;;5012479;28;20672;-67
2022/08/27 11:58:07;;;;;;;8.10;2.70;;;21.80;99.90;;;;;;5014693;28;20265;-68
2022/08/27 12:00:37;;;;;;;4.95;2.75;;;21.90;99.90;;;;;;5009492;28;20261;-71
2022/08/27 12:03:08;;;;;;;6.95;2.85;;;22.00;99.90;;;;;;5018809;28;20265;-71
2022/08/27 12:05:45;;;;;;;3.25;2.53;;;21.90;99.90;;;;;;5020297;28;20207;-69
2022/08/27 12:08:18;;;;;;;4.90;2.53;;;21.90;99.90;;;;;;5028909;28;20277;-70
2022/08/27 12:11:20;;;;;;;8.32;3.13;;;22.00;99.90;;;;;;5027438;28;20211;-70
2022/08/27 12:14:00;;;;;;;6.72;3.00;;;22.20;99.90;;;;;;5025751;28;20207;-70
2022/08/27 12:16:36;;;;;;;5.70;2.90;;;22.00;99.90;;;;;;5026158;28;20249;-70
2022/08/27 12:19:17;;;;;;;5.72;3.05;;;22.10;99.90;;;;;;5028330;28;20211;-68
2022/08/27 12:22:00;;;;;;;5.93;3.20;;;22.10;99.90;;;;;;5017605;28;20818;-69
2022/08/27 12:24:43;;;;;;;6.47;3.28;;;22.20;99.90;;;;;;5014592;28;20207;-69
2022/08/27 12:27:24;;;;;;;5.47;2.38;;;22.30;99.90;;;;;;5016081;28;20290;-69
2022/08/27 12:29:57;;;;;;;7.22;3.35;;;22.20;99.90;;;;;;5014081;28;20235;-69
2022/08/27 12:32:30;;;;;;;8.20;2.90;;;22.20;99.90;;;;;;5013096;28;20247;-69
2022/08/27 12:35:07;;;;;;;7.75;3.53;;;22.30;99.90;;;;;;5029308;28;20277;-69
2022/08/27 12:37:38;;;;;;;7.95;3.67;;;22.40;99.90;;;;;;5018101;28;20754;-69
2022/08/27 12:40:12;;;;;;;6.72;2.83;;;22.40;99.90;;;;;;5016668;28;20211;-69
2022/08/27 12:42:39;;;;;;;9.90;3.75;;;22.30;99.90;;;;;;5026877;28;20661;-68
2022/08/27 12:45:08;;;;;;;5.75;2.90;;;22.30;99.90;;;;;;5029937;28;20226;-69
2022/08/27 12:47:41;;;;;;;7.97;3.50;;;22.50;99.90;;;;;;5026450;28;20199;-69
2022/08/27 12:50:08;;;;;;;8.27;3.47;;;22.50;99.90;;;;;;5027473;28;20251;-69
2022/08/27 12:52:58;;;;;;;7.07;3.60;;;22.50;99.90;;;;;;5029020;28;20664;-68
2022/08/27 12:55:37;;;;;;;6.60;4.00;;;22.50;99.90;;;;;;5028262;28;20210;-68
2022/08/27 12:58:13;;;;;;;7.20;3.97;;;22.50;99.90;;;;;;5023381;28;20231;-68
2022/08/27 13:01:07;;;;;;;6.18;3.25;;;22.50;99.90;;;;;;5027743;28;20211;-69
2022/08/27 13:03:38;;;;;;;6.35;3.50;;;22.60;99.90;;;;;;5013110;28;20657;-69
2022/08/27 13:06:16;;;;;;;10.45;3.75;;;22.90;99.90;;;;;;5020294;28;20589;-69